sensor_id;sensor_type;location;lat;lon;timestamp;P1;durP1;ratioP1;P2;durP2;ratioP2
78618;SDS011;67941;52.506;5.470;2023-07-31T00:00:43;0.10;;;0.00;;
78618;SDS011;67941;52.506;5.470;2023-07-31T00:03:14;0.95;;;0.35;;
78618;SDS011;67941;52.506;5.470;2023-07-31T00:05:43;0.20;;;0.03;;
78618;SDS011;67941;52.506;5.470;2023-07-31T00:08:12;0.08;;;0.05;;
78618;SDS011;67941;52.506;5.470;2023-07-31T00:10:41;0.25;;;0.08;;
78618;SDS011;67941;52.506;5.470;2023-07-31T00:13:10;0.20;;;0.00;;
78618;SDS011;67941;52.506;5.470;2023-07-31T00:15:39;0.25;;;0.10;;
78618;SDS011;67941;52.506;5.470;2023-07-31T00:18:07;0.60;;;0.10;;
78618;SDS011;67941;52.506;5.470;2023-07-31T00:20:39;0.80;;;0.30;;
78618;SDS011;67941;52.506;5.470;2023-07-31T00:23:08;0.13;;;0.10;;
78618;SDS011;67941;52.506;5.470;2023-07-31T00:25:37;0.63;;;0.20;;
78618;SDS011;67941;52.506;5.470;2023-07-31T00:28:06;0.35;;;0.25;;
78618;SDS011;67941;52.506;5.470;2023-07-31T00:30:34;1.08;;;0.10;;
78618;SDS011;67941;52.506;5.470;2023-07-31T00:33:03;0.30;;;0.05;;
78618;SDS011;67941;52.506;5.470;2023-07-31T00:35:32;0.52;;;0.00;;
78618;SDS011;67941;52.506;5.470;2023-07-31T00:38:04;1.45;;;0.10;;
78618;SDS011;67941;52.506;5.470;2023-07-31T00:40:34;0.55;;;0.10;;
78618;SDS011;67941;52.506;5.470;2023-07-31T00:43:04;1.42;;;0.50;;
78618;SDS011;67941;52.506;5.470;2023-07-31T00:45:34;0.40;;;0.10;;
78618;SDS011;67941;52.506;5.470;2023-07-31T00:48:03;0.50;;;0.40;;
78618;SDS011;67941;52.506;5.470;2023-07-31T00:50:34;0.10;;;0.03;;
78618;SDS011;67941;52.506;5.470;2023-07-31T00:53:06;0.55;;;0.15;;
78618;SDS011;67941;52.506;5.470;2023-07-31T00:55:35;0.85;;;0.32;;
78618;SDS011;67941;52.506;5.470;2023-07-31T00:58:05;1.38;;;0.30;;
78618;SDS011;67941;52.506;5.470;2023-07-31T01:00:34;2.00;;;0.63;;
78618;SDS011;67941;52.506;5.470;2023-07-31T01:03:03;2.08;;;0.45;;
78618;SDS011;67941;52.506;5.470;2023-07-31T01:05:33;1.65;;;0.90;;
78618;SDS011;67941;52.506;5.470;2023-07-31T01:08:18;2.08;;;0.35;;
78618;SDS011;67941;52.506;5.470;2023-07-31T01:10:54;2.67;;;0.38;;
78618;SDS011;67941;52.506;5.470;2023-07-31T01:13:28;1.10;;;0.38;;
78618;SDS011;67941;52.506;5.470;2023-07-31T01:15:57;3.20;;;0.50;;
78618;SDS011;67941;52.506;5.470;2023-07-31T01:18:26;1.50;;;0.63;;
78618;SDS011;67941;52.506;5.470;2023-07-31T01:20:57;2.85;;;0.57;;
78618;SDS011;67941;52.506;5.470;2023-07-31T01:26:41;1.05;;;0.20;;
78618;SDS011;67941;52.506;5.470;2023-07-31T01:29:16;2.78;;;1.13;;
78618;SDS011;67941;52.506;5.470;2023-07-31T01:31:51;1.42;;;0.45;;
78618;SDS011;67941;52.506;5.470;2023-07-31T01:36:53;0.77;;;0.20;;
78618;SDS011;67941;52.506;5.470;2023-07-31T01:39:22;2.47;;;0.40;;
78618;SDS011;67941;52.506;5.470;2023-07-31T01:41:54;2.42;;;0.80;;
78618;SDS011;67941;52.506;5.470;2023-07-31T01:44:22;2.35;;;0.70;;
78618;SDS011;67941;52.506;5.470;2023-07-31T01:46:51;1.80;;;0.43;;
78618;SDS011;67941;52.506;5.470;2023-07-31T01:49:20;1.23;;;0.52;;
78618;SDS011;67941;52.506;5.470;2023-07-31T01:51:49;1.83;;;0.80;;
78618;SDS011;67941;52.506;5.470;2023-07-31T01:54:18;1.33;;;0.30;;
78618;SDS011;67941;52.506;5.470;2023-07-31T01:56:47;2.25;;;0.63;;
78618;SDS011;67941;52.506;5.470;2023-07-31T01:59:19;1.85;;;0.40;;
78618;SDS011;67941;52.506;5.470;2023-07-31T02:01:48;3.28;;;0.88;;
78618;SDS011;67941;52.506;5.470;2023-07-31T02:04:17;3.63;;;1.30;;
78618;SDS011;67941;52.506;5.470;2023-07-31T02:06:46;1.88;;;0.70;;
78618;SDS011;67941;52.506;5.470;2023-07-31T02:09:15;4.25;;;1.05;;
78618;SDS011;67941;52.506;5.470;2023-07-31T02:11:43;4.38;;;1.10;;
78618;SDS011;67941;52.506;5.470;2023-07-31T02:14:12;2.15;;;0.70;;
78618;SDS011;67941;52.506;5.470;2023-07-31T02:16:44;3.70;;;0.90;;
78618;SDS011;67941;52.506;5.470;2023-07-31T02:19:13;2.50;;;1.13;;
78618;SDS011;67941;52.506;5.470;2023-07-31T02:21:43;5.63;;;0.88;;
78618;SDS011;67941;52.506;5.470;2023-07-31T02:24:12;1.95;;;0.70;;
78618;SDS011;67941;52.506;5.470;2023-07-31T02:26:41;3.13;;;1.00;;
78618;SDS011;67941;52.506;5.470;2023-07-31T02:29:10;3.67;;;1.35;;
78618;SDS011;67941;52.506;5.470;2023-07-31T02:31:39;2.50;;;0.60;;
78618;SDS011;67941;52.506;5.470;2023-07-31T02:34:10;4.38;;;0.63;;
78618;SDS011;67941;52.506;5.470;2023-07-31T02:36:39;3.28;;;1.33;;
78618;SDS011;67941;52.506;5.470;2023-07-31T02:39:08;4.72;;;0.80;;
78618;SDS011;67941;52.506;5.470;2023-07-31T02:41:37;2.25;;;0.80;;
78618;SDS011;67941;52.506;5.470;2023-07-31T02:44:06;4.35;;;0.98;;
78618;SDS011;67941;52.506;5.470;2023-07-31T02:46:36;6.50;;;1.33;;
78618;SDS011;67941;52.506;5.470;2023-07-31T02:49:05;4.47;;;0.73;;
78618;SDS011;67941;52.506;5.470;2023-07-31T02:51:36;6.68;;;1.05;;
78618;SDS011;67941;52.506;5.470;2023-07-31T02:54:05;3.42;;;0.73;;
78618;SDS011;67941;52.506;5.470;2023-07-31T02:56:34;2.60;;;0.68;;
78618;SDS011;67941;52.506;5.470;2023-07-31T02:59:03;4.90;;;0.98;;
78618;SDS011;67941;52.506;5.470;2023-07-31T03:01:32;4.65;;;1.05;;
78618;SDS011;67941;52.506;5.470;2023-07-31T03:04:01;2.78;;;1.00;;
78618;SDS011;67941;52.506;5.470;2023-07-31T03:06:30;6.28;;;1.67;;
78618;SDS011;67941;52.506;5.470;2023-07-31T03:09:01;2.88;;;1.00;;
78618;SDS011;67941;52.506;5.470;2023-07-31T03:11:30;3.25;;;0.75;;
78618;SDS011;67941;52.506;5.470;2023-07-31T03:13:59;2.83;;;0.85;;
78618;SDS011;67941;52.506;5.470;2023-07-31T03:16:28;4.68;;;1.23;;
78618;SDS011;67941;52.506;5.470;2023-07-31T03:18:57;5.80;;;1.40;;
78618;SDS011;67941;52.506;5.470;2023-07-31T03:21:26;3.38;;;1.13;;
78618;SDS011;67941;52.506;5.470;2023-07-31T03:23:55;3.50;;;1.33;;
78618;SDS011;67941;52.506;5.470;2023-07-31T03:26:26;6.40;;;1.23;;
78618;SDS011;67941;52.506;5.470;2023-07-31T03:28:55;3.03;;;0.95;;
78618;SDS011;67941;52.506;5.470;2023-07-31T03:31:24;5.00;;;1.25;;
78618;SDS011;67941;52.506;5.470;2023-07-31T03:33:54;3.15;;;0.60;;
78618;SDS011;67941;52.506;5.470;2023-07-31T03:36:22;6.10;;;0.73;;
78618;SDS011;67941;52.506;5.470;2023-07-31T03:38:52;4.38;;;0.65;;
78618;SDS011;67941;52.506;5.470;2023-07-31T03:41:21;3.70;;;1.50;;
78618;SDS011;67941;52.506;5.470;2023-07-31T03:43:53;2.25;;;0.60;;
78618;SDS011;67941;52.506;5.470;2023-07-31T03:46:23;2.60;;;0.52;;
78618;SDS011;67941;52.506;5.470;2023-07-31T03:48:53;2.83;;;0.75;;
78618;SDS011;67941;52.506;5.470;2023-07-31T03:51:22;3.65;;;1.02;;
78618;SDS011;67941;52.506;5.470;2023-07-31T03:53:51;9.38;;;1.63;;
78618;SDS011;67941;52.506;5.470;2023-07-31T03:56:20;5.15;;;1.08;;
78618;SDS011;67941;52.506;5.470;2023-07-31T03:58:48;2.03;;;0.82;;
78618;SDS011;67941;52.506;5.470;2023-07-31T04:01:20;3.15;;;0.68;;
78618;SDS011;67941;52.506;5.470;2023-07-31T04:03:49;2.17;;;0.65;;
78618;SDS011;67941;52.506;5.470;2023-07-31T04:06:18;4.53;;;1.00;;
78618;SDS011;67941;52.506;5.470;2023-07-31T04:08:47;7.55;;;1.40;;
78618;SDS011;67941;52.506;5.470;2023-07-31T04:11:16;6.18;;;1.13;;
78618;SDS011;67941;52.506;5.470;2023-07-31T04:13:45;3.58;;;0.45;;
78618;SDS011;67941;52.506;5.470;2023-07-31T04:16:13;7.38;;;1.20;;
78618;SDS011;67941;52.506;5.470;2023-07-31T04:18:45;3.78;;;1.05;;
78618;SDS011;67941;52.506;5.470;2023-07-31T04:21:14;3.47;;;0.93;;
78618;SDS011;67941;52.506;5.470;2023-07-31T04:23:43;2.85;;;0.85;;
78618;SDS011;67941;52.506;5.470;2023-07-31T04:26:12;6.35;;;1.35;;
78618;SDS011;67941;52.506;5.470;2023-07-31T04:28:41;3.85;;;1.05;;
78618;SDS011;67941;52.506;5.470;2023-07-31T04:31:09;7.35;;;1.42;;
78618;SDS011;67941;52.506;5.470;2023-07-31T04:33:38;5.70;;;0.77;;
78618;SDS011;67941;52.506;5.470;2023-07-31T04:36:10;3.85;;;0.77;;
78618;SDS011;67941;52.506;5.470;2023-07-31T04:38:39;4.82;;;1.30;;
78618;SDS011;67941;52.506;5.470;2023-07-31T04:41:08;4.22;;;1.17;;
78618;SDS011;67941;52.506;5.470;2023-07-31T04:43:37;4.78;;;0.98;;
78618;SDS011;67941;52.506;5.470;2023-07-31T04:46:06;4.70;;;0.50;;
78618;SDS011;67941;52.506;5.470;2023-07-31T04:48:35;4.10;;;0.98;;
78618;SDS011;67941;52.506;5.470;2023-07-31T04:51:04;2.35;;;0.90;;
78618;SDS011;67941;52.506;5.470;2023-07-31T04:53:35;3.05;;;1.13;;
78618;SDS011;67941;52.506;5.470;2023-07-31T04:56:04;4.65;;;1.73;;
78618;SDS011;67941;52.506;5.470;2023-07-31T04:58:33;2.72;;;0.63;;
78618;SDS011;67941;52.506;5.470;2023-07-31T05:01:02;6.45;;;1.67;;
78618;SDS011;67941;52.506;5.470;2023-07-31T05:03:31;3.97;;;0.52;;
78618;SDS011;67941;52.506;5.470;2023-07-31T05:06:00;4.50;;;0.68;;
78618;SDS011;67941;52.506;5.470;2023-07-31T05:08:29;4.28;;;1.13;;
78618;SDS011;67941;52.506;5.470;2023-07-31T05:11:01;4.05;;;1.00;;
78618;SDS011;67941;52.506;5.470;2023-07-31T05:13:31;6.18;;;1.35;;
78618;SDS011;67941;52.506;5.470;2023-07-31T05:16:00;2.88;;;1.15;;
78618;SDS011;67941;52.506;5.470;2023-07-31T05:18:29;4.68;;;1.08;;
78618;SDS011;67941;52.506;5.470;2023-07-31T05:20:58;2.58;;;0.90;;
78618;SDS011;67941;52.506;5.470;2023-07-31T05:23:27;3.40;;;1.17;;
78618;SDS011;67941;52.506;5.470;2023-07-31T05:26:04;3.75;;;1.23;;
78618;SDS011;67941;52.506;5.470;2023-07-31T05:28:35;3.67;;;1.05;;
78618;SDS011;67941;52.506;5.470;2023-07-31T05:31:04;3.60;;;0.90;;
78618;SDS011;67941;52.506;5.470;2023-07-31T05:33:33;3.85;;;1.10;;
78618;SDS011;67941;52.506;5.470;2023-07-31T05:36:02;3.28;;;1.35;;
78618;SDS011;67941;52.506;5.470;2023-07-31T05:38:31;1.40;;;0.60;;
78618;SDS011;67941;52.506;5.470;2023-07-31T05:41:00;3.42;;;1.17;;
78618;SDS011;67941;52.506;5.470;2023-07-31T05:43:32;2.72;;;0.70;;
78618;SDS011;67941;52.506;5.470;2023-07-31T05:46:00;3.10;;;0.70;;
78618;SDS011;67941;52.506;5.470;2023-07-31T05:48:30;1.98;;;0.60;;
78618;SDS011;67941;52.506;5.470;2023-07-31T05:50:59;2.03;;;0.90;;
78618;SDS011;67941;52.506;5.470;2023-07-31T05:53:28;2.15;;;0.50;;
78618;SDS011;67941;52.506;5.470;2023-07-31T05:55:57;2.90;;;0.47;;
78618;SDS011;67941;52.506;5.470;2023-07-31T05:58:26;2.05;;;0.50;;
78618;SDS011;67941;52.506;5.470;2023-07-31T06:00:57;1.90;;;0.45;;
78618;SDS011;67941;52.506;5.470;2023-07-31T06:03:26;3.35;;;0.80;;
78618;SDS011;67941;52.506;5.470;2023-07-31T06:05:55;0.93;;;0.30;;
78618;SDS011;67941;52.506;5.470;2023-07-31T06:08:25;1.50;;;0.35;;
78618;SDS011;67941;52.506;5.470;2023-07-31T06:10:54;0.70;;;0.30;;
78618;SDS011;67941;52.506;5.470;2023-07-31T06:13:23;1.08;;;0.43;;
78618;SDS011;67941;52.506;5.470;2023-07-31T06:15:52;0.93;;;0.25;;
78618;SDS011;67941;52.506;5.470;2023-07-31T06:18:23;0.70;;;0.40;;
78618;SDS011;67941;52.506;5.470;2023-07-31T06:20:52;1.67;;;0.88;;
78618;SDS011;67941;52.506;5.470;2023-07-31T06:23:21;1.50;;;0.65;;
78618;SDS011;67941;52.506;5.470;2023-07-31T06:25:50;0.80;;;0.30;;
78618;SDS011;67941;52.506;5.470;2023-07-31T06:28:19;1.10;;;0.20;;
78618;SDS011;67941;52.506;5.470;2023-07-31T06:30:48;0.85;;;0.20;;
78618;SDS011;67941;52.506;5.470;2023-07-31T06:33:17;1.95;;;0.55;;
78618;SDS011;67941;52.506;5.470;2023-07-31T06:35:48;1.00;;;0.30;;
78618;SDS011;67941;52.506;5.470;2023-07-31T06:38:18;0.73;;;0.30;;
78618;SDS011;67941;52.506;5.470;2023-07-31T06:40:50;0.60;;;0.45;;
78618;SDS011;67941;52.506;5.470;2023-07-31T06:43:19;0.60;;;0.30;;
78618;SDS011;67941;52.506;5.470;2023-07-31T06:45:48;0.70;;;0.43;;
78618;SDS011;67941;52.506;5.470;2023-07-31T06:48:17;0.98;;;0.40;;
78618;SDS011;67941;52.506;5.470;2023-07-31T06:50:45;0.65;;;0.30;;
78618;SDS011;67941;52.506;5.470;2023-07-31T06:53:17;0.93;;;0.45;;
78618;SDS011;67941;52.506;5.470;2023-07-31T06:55:46;1.50;;;0.70;;
78618;SDS011;67941;52.506;5.470;2023-07-31T06:58:17;1.00;;;0.50;;
78618;SDS011;67941;52.506;5.470;2023-07-31T07:00:46;1.10;;;0.50;;
78618;SDS011;67941;52.506;5.470;2023-07-31T07:03:17;1.35;;;0.30;;
78618;SDS011;67941;52.506;5.470;2023-07-31T07:05:50;0.57;;;0.32;;
78618;SDS011;67941;52.506;5.470;2023-07-31T07:08:18;0.68;;;0.50;;
78618;SDS011;67941;52.506;5.470;2023-07-31T07:10:47;0.60;;;0.30;;
78618;SDS011;67941;52.506;5.470;2023-07-31T07:13:16;0.40;;;0.10;;
78618;SDS011;67941;52.506;5.470;2023-07-31T07:15:47;0.45;;;0.45;;
78618;SDS011;67941;52.506;5.470;2023-07-31T07:18:17;0.50;;;0.15;;
78618;SDS011;67941;52.506;5.470;2023-07-31T07:20:46;0.98;;;0.43;;
78618;SDS011;67941;52.506;5.470;2023-07-31T07:23:18;0.90;;;0.38;;
78618;SDS011;67941;52.506;5.470;2023-07-31T07:25:48;1.02;;;0.52;;
78618;SDS011;67941;52.506;5.470;2023-07-31T07:28:17;0.88;;;0.40;;
78618;SDS011;67941;52.506;5.470;2023-07-31T07:30:50;0.68;;;0.40;;
78618;SDS011;67941;52.506;5.470;2023-07-31T07:33:20;0.25;;;0.10;;
78618;SDS011;67941;52.506;5.470;2023-07-31T07:35:52;0.55;;;0.40;;
78618;SDS011;67941;52.506;5.470;2023-07-31T07:38:20;0.75;;;0.30;;
78618;SDS011;67941;52.506;5.470;2023-07-31T07:40:50;0.60;;;0.30;;
78618;SDS011;67941;52.506;5.470;2023-07-31T07:43:19;0.40;;;0.30;;
78618;SDS011;67941;52.506;5.470;2023-07-31T07:45:48;0.40;;;0.10;;
78618;SDS011;67941;52.506;5.470;2023-07-31T07:48:18;0.75;;;0.20;;
78618;SDS011;67941;52.506;5.470;2023-07-31T07:50:48;0.30;;;0.30;;
78618;SDS011;67941;52.506;5.470;2023-07-31T07:53:20;0.40;;;0.40;;
78618;SDS011;67941;52.506;5.470;2023-07-31T07:55:49;0.55;;;0.35;;
78618;SDS011;67941;52.506;5.470;2023-07-31T07:58:18;0.73;;;0.65;;
78618;SDS011;67941;52.506;5.470;2023-07-31T08:00:50;0.60;;;0.20;;
78618;SDS011;67941;52.506;5.470;2023-07-31T08:03:19;0.43;;;0.32;;
78618;SDS011;67941;52.506;5.470;2023-07-31T08:05:48;0.40;;;0.30;;
78618;SDS011;67941;52.506;5.470;2023-07-31T08:08:19;0.32;;;0.30;;
78618;SDS011;67941;52.506;5.470;2023-07-31T08:10:48;0.40;;;0.40;;
78618;SDS011;67941;52.506;5.470;2023-07-31T08:13:17;0.60;;;0.60;;
78618;SDS011;67941;52.506;5.470;2023-07-31T08:15:46;0.57;;;0.35;;
78618;SDS011;67941;52.506;5.470;2023-07-31T08:18:15;0.45;;;0.35;;
78618;SDS011;67941;52.506;5.470;2023-07-31T08:20:44;0.10;;;0.10;;
78618;SDS011;67941;52.506;5.470;2023-07-31T08:23:13;0.32;;;0.32;;
78618;SDS011;67941;52.506;5.470;2023-07-31T08:25:44;0.52;;;0.52;;
78618;SDS011;67941;52.506;5.470;2023-07-31T08:28:16;0.50;;;0.50;;
78618;SDS011;67941;52.506;5.470;2023-07-31T08:30:45;0.10;;;0.05;;
78618;SDS011;67941;52.506;5.470;2023-07-31T08:33:15;0.30;;;0.30;;
78618;SDS011;67941;52.506;5.470;2023-07-31T08:35:44;0.32;;;0.30;;
78618;SDS011;67941;52.506;5.470;2023-07-31T08:38:13;0.47;;;0.45;;
78618;SDS011;67941;52.506;5.470;2023-07-31T08:40:45;0.30;;;0.20;;
78618;SDS011;67941;52.506;5.470;2023-07-31T08:43:14;0.40;;;0.30;;
78618;SDS011;67941;52.506;5.470;2023-07-31T08:45:43;0.30;;;0.25;;
78618;SDS011;67941;52.506;5.470;2023-07-31T08:48:12;0.30;;;0.30;;
78618;SDS011;67941;52.506;5.470;2023-07-31T08:50:43;0.50;;;0.30;;
78618;SDS011;67941;52.506;5.470;2023-07-31T08:53:13;0.30;;;0.30;;
78618;SDS011;67941;52.506;5.470;2023-07-31T08:55:45;0.30;;;0.30;;
78618;SDS011;67941;52.506;5.470;2023-07-31T08:58:15;0.47;;;0.47;;
78618;SDS011;67941;52.506;5.470;2023-07-31T09:00:46;0.40;;;0.10;;
78618;SDS011;67941;52.506;5.470;2023-07-31T09:03:15;0.28;;;0.28;;
78618;SDS011;67941;52.506;5.470;2023-07-31T09:05:46;0.30;;;0.30;;
78618;SDS011;67941;52.506;5.470;2023-07-31T09:08:17;0.22;;;0.22;;
78618;SDS011;67941;52.506;5.470;2023-07-31T09:10:50;0.30;;;0.20;;
78618;SDS011;67941;52.506;5.470;2023-07-31T09:13:20;0.25;;;0.25;;
78618;SDS011;67941;52.506;5.470;2023-07-31T09:15:49;0.43;;;0.32;;
78618;SDS011;67941;52.506;5.470;2023-07-31T09:18:18;0.30;;;0.30;;
78618;SDS011;67941;52.506;5.470;2023-07-31T09:20:59;1.20;;;0.30;;
78618;SDS011;67941;52.506;5.470;2023-07-31T09:23:40;1.30;;;0.20;;
78618;SDS011;67941;52.506;5.470;2023-07-31T09:26:12;0.20;;;0.20;;
78618;SDS011;67941;52.506;5.470;2023-07-31T09:28:57;0.45;;;0.32;;
78618;SDS011;67941;52.506;5.470;2023-07-31T09:31:32;0.32;;;0.10;;
78618;SDS011;67941;52.506;5.470;2023-07-31T09:34:06;0.30;;;0.30;;
78618;SDS011;67941;52.506;5.470;2023-07-31T09:36:39;0.10;;;0.00;;
78618;SDS011;67941;52.506;5.470;2023-07-31T09:39:09;0.60;;;0.32;;
78618;SDS011;67941;52.506;5.470;2023-07-31T09:41:44;0.30;;;0.30;;
78618;SDS011;67941;52.506;5.470;2023-07-31T09:44:15;0.32;;;0.32;;
78618;SDS011;67941;52.506;5.470;2023-07-31T09:46:44;0.10;;;0.00;;
78618;SDS011;67941;52.506;5.470;2023-07-31T09:49:14;0.43;;;0.22;;
78618;SDS011;67941;52.506;5.470;2023-07-31T09:51:43;0.30;;;0.20;;
78618;SDS011;67941;52.506;5.470;2023-07-31T09:54:12;0.43;;;0.43;;
78618;SDS011;67941;52.506;5.470;2023-07-31T09:56:45;0.28;;;0.20;;
78618;SDS011;67941;52.506;5.470;2023-07-31T09:59:15;0.63;;;0.20;;
78618;SDS011;67941;52.506;5.470;2023-07-31T10:01:45;0.60;;;0.40;;
78618;SDS011;67941;52.506;5.470;2023-07-31T10:04:15;0.43;;;0.08;;
78618;SDS011;67941;52.506;5.470;2023-07-31T10:06:48;0.15;;;0.10;;
78618;SDS011;67941;52.506;5.470;2023-07-31T10:09:18;2.97;;;0.63;;
78618;SDS011;67941;52.506;5.470;2023-07-31T10:11:52;0.85;;;0.20;;
78618;SDS011;67941;52.506;5.470;2023-07-31T10:14:24;0.77;;;0.40;;
78618;SDS011;67941;52.506;5.470;2023-07-31T10:16:56;1.75;;;0.60;;
78618;SDS011;67941;52.506;5.470;2023-07-31T10:19:26;1.23;;;0.10;;
78618;SDS011;67941;52.506;5.470;2023-07-31T10:21:59;2.45;;;0.55;;
78618;SDS011;67941;52.506;5.470;2023-07-31T10:24:28;2.80;;;0.20;;
78618;SDS011;67941;52.506;5.470;2023-07-31T10:27:00;1.58;;;0.20;;
78618;SDS011;67941;52.506;5.470;2023-07-31T10:29:30;1.90;;;1.02;;
78618;SDS011;67941;52.506;5.470;2023-07-31T10:32:00;1.55;;;0.22;;
78618;SDS011;67941;52.506;5.470;2023-07-31T10:34:31;1.85;;;0.43;;
78618;SDS011;67941;52.506;5.470;2023-07-31T10:39:56;1.17;;;0.20;;
78618;SDS011;67941;52.506;5.470;2023-07-31T10:42:30;1.23;;;0.43;;
78618;SDS011;67941;52.506;5.470;2023-07-31T10:45:02;2.00;;;0.20;;
78618;SDS011;67941;52.506;5.470;2023-07-31T10:47:36;3.40;;;0.90;;
78618;SDS011;67941;52.506;5.470;2023-07-31T10:50:13;1.10;;;0.40;;
78618;SDS011;67941;52.506;5.470;2023-07-31T10:52:46;2.88;;;0.38;;
78618;SDS011;67941;52.506;5.470;2023-07-31T10:55:26;0.90;;;0.50;;
78618;SDS011;67941;52.506;5.470;2023-07-31T10:58:05;1.58;;;0.50;;
78618;SDS011;67941;52.506;5.470;2023-07-31T11:00:36;1.63;;;0.50;;
78618;SDS011;67941;52.506;5.470;2023-07-31T11:03:06;1.85;;;0.50;;
78618;SDS011;67941;52.506;5.470;2023-07-31T11:05:41;1.67;;;0.47;;
78618;SDS011;67941;52.506;5.470;2023-07-31T11:08:15;3.67;;;0.57;;
78618;SDS011;67941;52.506;5.470;2023-07-31T11:10:46;3.97;;;0.65;;
78618;SDS011;67941;52.506;5.470;2023-07-31T11:13:18;2.80;;;0.50;;
78618;SDS011;67941;52.506;5.470;2023-07-31T11:15:47;3.17;;;0.73;;
78618;SDS011;67941;52.506;5.470;2023-07-31T11:18:16;1.08;;;0.40;;
78618;SDS011;67941;52.506;5.470;2023-07-31T11:20:45;3.75;;;0.90;;
78618;SDS011;67941;52.506;5.470;2023-07-31T11:23:15;3.13;;;0.60;;
78618;SDS011;67941;52.506;5.470;2023-07-31T11:25:45;1.90;;;0.63;;
78618;SDS011;67941;52.506;5.470;2023-07-31T11:28:15;4.32;;;1.08;;
78618;SDS011;67941;52.506;5.470;2023-07-31T11:30:47;2.58;;;0.80;;
78618;SDS011;67941;52.506;5.470;2023-07-31T11:33:16;2.42;;;0.60;;
78618;SDS011;67941;52.506;5.470;2023-07-31T11:35:45;1.25;;;0.38;;
78618;SDS011;67941;52.506;5.470;2023-07-31T11:38:20;1.75;;;0.47;;
78618;SDS011;67941;52.506;5.470;2023-07-31T11:40:51;1.65;;;0.50;;
78618;SDS011;67941;52.506;5.470;2023-07-31T11:43:22;4.22;;;0.60;;
78618;SDS011;67941;52.506;5.470;2023-07-31T11:45:52;1.88;;;0.43;;
78618;SDS011;67941;52.506;5.470;2023-07-31T11:48:24;1.95;;;0.70;;
78618;SDS011;67941;52.506;5.470;2023-07-31T11:50:54;2.75;;;0.40;;
78618;SDS011;67941;52.506;5.470;2023-07-31T11:53:27;2.28;;;0.75;;
78618;SDS011;67941;52.506;5.470;2023-07-31T11:55:59;1.95;;;0.60;;
78618;SDS011;67941;52.506;5.470;2023-07-31T11:58:33;3.53;;;0.68;;
78618;SDS011;67941;52.506;5.470;2023-07-31T12:01:03;1.35;;;0.68;;
78618;SDS011;67941;52.506;5.470;2023-07-31T12:03:33;1.17;;;0.43;;
78618;SDS011;67941;52.506;5.470;2023-07-31T12:06:03;1.23;;;0.40;;
78618;SDS011;67941;52.506;5.470;2023-07-31T12:08:31;0.98;;;0.20;;
78618;SDS011;67941;52.506;5.470;2023-07-31T12:11:02;1.13;;;0.30;;
78618;SDS011;67941;52.506;5.470;2023-07-31T12:13:34;3.08;;;0.40;;
78618;SDS011;67941;52.506;5.470;2023-07-31T12:16:03;1.45;;;0.47;;
78618;SDS011;67941;52.506;5.470;2023-07-31T12:18:33;2.90;;;1.00;;
78618;SDS011;67941;52.506;5.470;2023-07-31T12:21:04;1.60;;;0.60;;
78618;SDS011;67941;52.506;5.470;2023-07-31T12:23:35;1.83;;;0.50;;
78618;SDS011;67941;52.506;5.470;2023-07-31T12:26:07;1.52;;;0.70;;
78618;SDS011;67941;52.506;5.470;2023-07-31T12:28:40;2.33;;;0.68;;
78618;SDS011;67941;52.506;5.470;2023-07-31T12:31:10;0.98;;;0.52;;
78618;SDS011;67941;52.506;5.470;2023-07-31T12:33:40;2.42;;;0.80;;
78618;SDS011;67941;52.506;5.470;2023-07-31T12:36:10;0.63;;;0.50;;
78618;SDS011;67941;52.506;5.470;2023-07-31T12:38:40;1.90;;;0.68;;
78618;SDS011;67941;52.506;5.470;2023-07-31T12:41:10;1.55;;;0.70;;
78618;SDS011;67941;52.506;5.470;2023-07-31T12:43:42;2.35;;;0.20;;
78618;SDS011;67941;52.506;5.470;2023-07-31T12:46:11;1.75;;;0.70;;
78618;SDS011;67941;52.506;5.470;2023-07-31T12:48:42;1.08;;;0.73;;
78618;SDS011;67941;52.506;5.470;2023-07-31T12:51:11;1.30;;;0.15;;
78618;SDS011;67941;52.506;5.470;2023-07-31T12:53:40;1.58;;;0.57;;
78618;SDS011;67941;52.506;5.470;2023-07-31T12:56:09;1.15;;;0.40;;
78618;SDS011;67941;52.506;5.470;2023-07-31T12:58:38;1.48;;;0.85;;
78618;SDS011;67941;52.506;5.470;2023-07-31T13:01:10;2.95;;;0.85;;
78618;SDS011;67941;52.506;5.470;2023-07-31T13:03:40;0.80;;;0.52;;
78618;SDS011;67941;52.506;5.470;2023-07-31T13:06:09;2.58;;;0.57;;
78618;SDS011;67941;52.506;5.470;2023-07-31T13:08:38;2.65;;;1.00;;
78618;SDS011;67941;52.506;5.470;2023-07-31T13:11:08;2.33;;;0.65;;
78618;SDS011;67941;52.506;5.470;2023-07-31T13:13:37;1.55;;;0.75;;
78618;SDS011;67941;52.506;5.470;2023-07-31T13:16:11;2.75;;;0.60;;
78618;SDS011;67941;52.506;5.470;2023-07-31T13:18:40;1.73;;;1.00;;
78618;SDS011;67941;52.506;5.470;2023-07-31T13:21:09;1.67;;;0.60;;
78618;SDS011;67941;52.506;5.470;2023-07-31T13:23:38;2.03;;;0.70;;
78618;SDS011;67941;52.506;5.470;2023-07-31T13:26:07;1.05;;;0.50;;
78618;SDS011;67941;52.506;5.470;2023-07-31T13:28:36;1.35;;;0.60;;
78618;SDS011;67941;52.506;5.470;2023-07-31T13:31:04;1.80;;;0.57;;
78618;SDS011;67941;52.506;5.470;2023-07-31T13:33:36;0.88;;;0.65;;
78618;SDS011;67941;52.506;5.470;2023-07-31T13:36:05;1.08;;;0.40;;
78618;SDS011;67941;52.506;5.470;2023-07-31T13:38:34;1.00;;;0.52;;
78618;SDS011;67941;52.506;5.470;2023-07-31T13:41:03;2.08;;;0.60;;
78618;SDS011;67941;52.506;5.470;2023-07-31T13:43:32;1.67;;;0.30;;
78618;SDS011;67941;52.506;5.470;2023-07-31T13:46:00;2.00;;;0.50;;
78618;SDS011;67941;52.506;5.470;2023-07-31T13:48:32;2.08;;;0.80;;
78618;SDS011;67941;52.506;5.470;2023-07-31T13:51:05;2.88;;;0.73;;
78618;SDS011;67941;52.506;5.470;2023-07-31T13:53:34;1.50;;;0.75;;
78618;SDS011;67941;52.506;5.470;2023-07-31T13:56:03;0.60;;;0.55;;
78618;SDS011;67941;52.506;5.470;2023-07-31T13:58:33;0.65;;;0.50;;
78618;SDS011;67941;52.506;5.470;2023-07-31T14:01:02;2.63;;;0.52;;
78618;SDS011;67941;52.506;5.470;2023-07-31T14:03:31;1.13;;;0.35;;
78618;SDS011;67941;52.506;5.470;2023-07-31T14:06:00;0.98;;;0.10;;
78618;SDS011;67941;52.506;5.470;2023-07-31T14:08:32;1.08;;;0.50;;
78618;SDS011;67941;52.506;5.470;2023-07-31T14:11:00;0.50;;;0.20;;
78618;SDS011;67941;52.506;5.470;2023-07-31T14:13:29;3.83;;;0.57;;
78618;SDS011;67941;52.506;5.470;2023-07-31T14:15:58;2.63;;;0.60;;
78618;SDS011;67941;52.506;5.470;2023-07-31T14:18:27;1.17;;;0.20;;
78618;SDS011;67941;52.506;5.470;2023-07-31T14:20:56;1.00;;;0.75;;
78618;SDS011;67941;52.506;5.470;2023-07-31T14:23:25;1.73;;;0.40;;
78618;SDS011;67941;52.506;5.470;2023-07-31T14:25:56;1.60;;;0.50;;
78618;SDS011;67941;52.506;5.470;2023-07-31T14:28:25;0.90;;;0.63;;
78618;SDS011;67941;52.506;5.470;2023-07-31T14:30:54;0.55;;;0.10;;
78618;SDS011;67941;52.506;5.470;2023-07-31T14:33:23;0.40;;;0.13;;
78618;SDS011;67941;52.506;5.470;2023-07-31T14:35:52;1.83;;;1.13;;
78618;SDS011;67941;52.506;5.470;2023-07-31T14:38:21;1.52;;;0.63;;
78618;SDS011;67941;52.506;5.470;2023-07-31T14:40:50;2.25;;;0.30;;
78618;SDS011;67941;52.506;5.470;2023-07-31T14:43:22;1.60;;;0.45;;
78618;SDS011;67941;52.506;5.470;2023-07-31T14:45:51;1.15;;;0.30;;
78618;SDS011;67941;52.506;5.470;2023-07-31T14:48:23;1.58;;;0.47;;
78618;SDS011;67941;52.506;5.470;2023-07-31T14:50:51;0.75;;;0.30;;
78618;SDS011;67941;52.506;5.470;2023-07-31T14:53:20;0.90;;;0.32;;
78618;SDS011;67941;52.506;5.470;2023-07-31T14:55:49;1.35;;;0.95;;
78618;SDS011;67941;52.506;5.470;2023-07-31T14:58:18;0.55;;;0.50;;
78618;SDS011;67941;52.506;5.470;2023-07-31T15:00:50;0.88;;;0.40;;
78618;SDS011;67941;52.506;5.470;2023-07-31T15:03:19;0.95;;;0.40;;
78618;SDS011;67941;52.506;5.470;2023-07-31T15:05:50;0.45;;;0.10;;
78618;SDS011;67941;52.506;5.470;2023-07-31T15:08:19;0.30;;;0.20;;
78618;SDS011;67941;52.506;5.470;2023-07-31T15:10:48;0.30;;;0.30;;
78618;SDS011;67941;52.506;5.470;2023-07-31T15:13:25;0.63;;;0.38;;